sensor_id;sensor_type;location;lat;lon;timestamp;pressure;altitude;pressure_sealevel;temperature;humidity
64352;BME280;50680;52.626;-8.668;2023-07-22T00:00:44;100963.00;;;16.52;100.00
64352;BME280;50680;52.626;-8.668;2023-07-22T00:03:12;100951.41;;;16.53;100.00
64352;BME280;50680;52.626;-8.668;2023-07-22T00:05:40;100957.19;;;16.59;100.00
64352;BME280;50680;52.626;-8.668;2023-07-22T00:08:07;100944.06;;;16.57;100.00
64352;BME280;50680;52.626;-8.668;2023-07-22T00:10:34;100945.88;;;16.57;100.00
64352;BME280;50680;52.626;-8.668;2023-07-22T00:13:01;100944.94;;;16.58;100.00
64352;BME280;50680;52.626;-8.668;2023-07-22T00:15:28;100936.72;;;16.61;100.00
64352;BME280;50680;52.626;-8.668;2023-07-22T00:17:55;100941.66;;;16.65;100.00
64352;BME280;50680;52.626;-8.668;2023-07-22T00:20:22;100933.59;;;16.67;100.00
64352;BME280;50680;52.626;-8.668;2023-07-22T00:22:50;100928.06;;;16.59;100.00
64352;BME280;50680;52.626;-8.668;2023-07-22T00:25:17;100927.13;;;16.60;100.00
64352;BME280;50680;52.626;-8.668;2023-07-22T00:27:44;100924.34;;;16.61;100.00
64352;BME280;50680;52.626;-8.668;2023-07-22T00:30:11;100920.84;;;16.61;100.00
64352;BME280;50680;52.626;-8.668;2023-07-22T00:32:38;100921.53;;;16.63;100.00
64352;BME280;50680;52.626;-8.668;2023-07-22T00:35:06;100918.66;;;16.66;100.00
64352;BME280;50680;52.626;-8.668;2023-07-22T00:37:33;100915.19;;;16.65;100.00
64352;BME280;50680;52.626;-8.668;2023-07-22T00:40:01;100904.34;;;16.68;100.00
64352;BME280;50680;52.626;-8.668;2023-07-22T00:42:30;100900.97;;;16.66;100.00
64352;BME280;50680;52.626;-8.668;2023-07-22T00:44:57;100901.94;;;16.65;100.00
64352;BME280;50680;52.626;-8.668;2023-07-22T00:47:24;100893.88;;;16.67;100.00
64352;BME280;50680;52.626;-8.668;2023-07-22T00:49:51;100877.88;;;16.68;100.00
64352;BME280;50680;52.626;-8.668;2023-07-22T00:52:18;100877.88;;;16.68;100.00
64352;BME280;50680;52.626;-8.668;2023-07-22T00:54:46;100874.75;;;16.63;100.00
64352;BME280;50680;52.626;-8.668;2023-07-22T00:57:14;100869.34;;;16.65;100.00
64352;BME280;50680;52.626;-8.668;2023-07-22T00:59:41;100866.81;;;16.63;100.00
64352;BME280;50680;52.626;-8.668;2023-07-22T01:02:08;100851.88;;;16.62;100.00
64352;BME280;50680;52.626;-8.668;2023-07-22T01:04:36;100858.94;;;16.73;100.00
64352;BME280;50680;52.626;-8.668;2023-07-22T01:07:04;100845.22;;;16.68;100.00
64352;BME280;50680;52.626;-8.668;2023-07-22T01:09:40;100841.03;;;16.65;100.00
64352;BME280;50680;52.626;-8.668;2023-07-22T01:12:08;100837.03;;;16.71;100.00
64352;BME280;50680;52.626;-8.668;2023-07-22T01:14:39;100832.16;;;16.66;100.00
64352;BME280;50680;52.626;-8.668;2023-07-22T01:17:10;100834.94;;;16.65;100.00
64352;BME280;50680;52.626;-8.668;2023-07-22T01:19:38;100832.00;;;16.68;100.00
64352;BME280;50680;52.626;-8.668;2023-07-22T01:22:06;100823.47;;;16.64;100.00
64352;BME280;50680;52.626;-8.668;2023-07-22T01:24:38;100820.00;;;16.64;100.00
64352;BME280;50680;52.626;-8.668;2023-07-22T01:27:06;100814.19;;;16.70;100.00
64352;BME280;50680;52.626;-8.668;2023-07-22T01:29:36;100814.44;;;16.67;100.00
64352;BME280;50680;52.626;-8.668;2023-07-22T01:32:04;100816.84;;;16.70;100.00
64352;BME280;50680;52.626;-8.668;2023-07-22T01:34:31;100808.91;;;16.70;100.00
64352;BME280;50680;52.626;-8.668;2023-07-22T01:36:59;100799.03;;;16.72;100.00
64352;BME280;50680;52.626;-8.668;2023-07-22T01:39:26;100796.50;;;16.70;100.00
64352;BME280;50680;52.626;-8.668;2023-07-22T01:41:54;100793.16;;;16.68;100.00
64352;BME280;50680;52.626;-8.668;2023-07-22T01:44:21;100784.50;;;16.66;100.00
64352;BME280;50680;52.626;-8.668;2023-07-22T01:46:48;100778.59;;;16.63;100.00
64352;BME280;50680;52.626;-8.668;2023-07-22T01:49:15;100770.53;;;16.64;100.00
64352;BME280;50680;52.626;-8.668;2023-07-22T01:51:43;100764.53;;;16.62;100.00
64352;BME280;50680;52.626;-8.668;2023-07-22T01:54:10;100763.00;;;16.60;100.00
64352;BME280;50680;52.626;-8.668;2023-07-22T01:56:38;100763.56;;;16.63;100.00
64352;BME280;50680;52.626;-8.668;2023-07-22T01:59:06;100746.25;;;16.59;100.00
64352;BME280;50680;52.626;-8.668;2023-07-22T02:01:33;100746.00;;;16.62;100.00
64352;BME280;50680;52.626;-8.668;2023-07-22T02:04:00;100741.13;;;16.58;100.00
64352;BME280;50680;52.626;-8.668;2023-07-22T02:06:27;100737.59;;;16.57;100.00
64352;BME280;50680;52.626;-8.668;2023-07-22T02:08:56;100739.16;;;16.60;100.00
64352;BME280;50680;52.626;-8.668;2023-07-22T02:11:23;100729.16;;;16.63;100.00
64352;BME280;50680;52.626;-8.668;2023-07-22T02:13:50;100729.28;;;16.62;100.00
64352;BME280;50680;52.626;-8.668;2023-07-22T02:16:17;100729.75;;;16.67;100.00
64352;BME280;50680;52.626;-8.668;2023-07-22T02:18:45;100726.09;;;16.68;100.00
64352;BME280;50680;52.626;-8.668;2023-07-22T02:21:12;100710.09;;;16.69;100.00
64352;BME280;50680;52.626;-8.668;2023-07-22T02:23:40;100704.66;;;16.71;100.00
64352;BME280;50680;52.626;-8.668;2023-07-22T02:26:07;100705.66;;;16.70;100.00
64352;BME280;50680;52.626;-8.668;2023-07-22T02:28:34;100704.41;;;16.74;100.00
64352;BME280;50680;52.626;-8.668;2023-07-22T02:31:02;100693.38;;;16.69;100.00
64352;BME280;50680;52.626;-8.668;2023-07-22T02:33:34;100695.75;;;16.72;100.00
64352;BME280;50680;52.626;-8.668;2023-07-22T02:36:01;100694.34;;;16.68;100.00
64352;BME280;50680;52.626;-8.668;2023-07-22T02:38:28;100694.78;;;16.73;100.00
64352;BME280;50680;52.626;-8.668;2023-07-22T02:41:01;100685.63;;;16.77;100.00
64352;BME280;50680;52.626;-8.668;2023-07-22T02:43:28;100680.59;;;16.74;100.00
64352;BME280;50680;52.626;-8.668;2023-07-22T02:45:55;100676.69;;;16.78;100.00
64352;BME280;50680;52.626;-8.668;2023-07-22T02:48:23;100667.78;;;16.79;100.00
64352;BME280;50680;52.626;-8.668;2023-07-22T02:50:49;100672.25;;;16.79;100.00
64352;BME280;50680;52.626;-8.668;2023-07-22T02:53:16;100657.19;;;16.79;100.00
64352;BME280;50680;52.626;-8.668;2023-07-22T02:55:43;100658.31;;;16.77;100.00
64352;BME280;50680;52.626;-8.668;2023-07-22T02:58:10;100650.22;;;16.78;100.00
64352;BME280;50680;52.626;-8.668;2023-07-22T03:00:38;100655.03;;;16.84;100.00
64352;BME280;50680;52.626;-8.668;2023-07-22T03:03:05;100646.94;;;16.86;100.00
64352;BME280;50680;52.626;-8.668;2023-07-22T03:05:32;100643.47;;;16.85;100.00
64352;BME280;50680;52.626;-8.668;2023-07-22T03:08:00;100644.16;;;16.87;100.00
64352;BME280;50680;52.626;-8.668;2023-07-22T03:10:28;100636.34;;;16.86;100.00
64352;BME280;50680;52.626;-8.668;2023-07-22T03:12:56;100634.41;;;16.88;100.00
64352;BME280;50680;52.626;-8.668;2023-07-22T03:15:23;100631.38;;;16.92;100.00
64352;BME280;50680;52.626;-8.668;2023-07-22T03:17:53;100631.50;;;16.91;100.00
64352;BME280;50680;52.626;-8.668;2023-07-22T03:20:20;100625.75;;;16.86;100.00
64352;BME280;50680;52.626;-8.668;2023-07-22T03:22:49;100616.69;;;16.88;100.00
64352;BME280;50680;52.626;-8.668;2023-07-22T03:25:16;100619.91;;;16.92;100.00
64352;BME280;50680;52.626;-8.668;2023-07-22T03:27:44;100609.31;;;16.92;100.00
64352;BME280;50680;52.626;-8.668;2023-07-22T03:30:13;100599.84;;;16.89;100.00
64352;BME280;50680;52.626;-8.668;2023-07-22T03:32:47;100599.16;;;16.97;100.00
64352;BME280;50680;52.626;-8.668;2023-07-22T03:35:16;100596.94;;;16.92;100.00
64352;BME280;50680;52.626;-8.668;2023-07-22T03:37:45;100594.28;;;16.92;100.00
64352;BME280;50680;52.626;-8.668;2023-07-22T03:40:12;100599.44;;;16.94;100.00
64352;BME280;50680;52.626;-8.668;2023-07-22T03:42:54;100594.00;;;16.96;100.00
64352;BME280;50680;52.626;-8.668;2023-07-22T03:45:22;100591.50;;;16.94;100.00
64352;BME280;50680;52.626;-8.668;2023-07-22T03:47:56;100590.94;;;16.90;100.00
64352;BME280;50680;52.626;-8.668;2023-07-22T03:50:24;100587.03;;;16.95;100.00
64352;BME280;50680;52.626;-8.668;2023-07-22T03:52:51;100589.81;;;16.93;100.00
64352;BME280;50680;52.626;-8.668;2023-07-22T03:55:18;100590.66;;;16.94;100.00
64352;BME280;50680;52.626;-8.668;2023-07-22T03:57:46;100581.47;;;16.98;100.00
64352;BME280;50680;52.626;-8.668;2023-07-22T04:00:13;100566.13;;;16.91;100.00
64352;BME280;50680;52.626;-8.668;2023-07-22T04:02:40;100579.53;;;17.00;100.00
64352;BME280;50680;52.626;-8.668;2023-07-22T04:05:08;100569.50;;;17.03;100.00
64352;BME280;50680;52.626;-8.668;2023-07-22T04:07:35;100566.72;;;17.05;100.00
64352;BME280;50680;52.626;-8.668;2023-07-22T04:10:02;100564.06;;;17.05;100.00
64352;BME280;50680;52.626;-8.668;2023-07-22T04:12:30;100568.38;;;17.06;100.00
64352;BME280;50680;52.626;-8.668;2023-07-22T04:14:57;100566.13;;;17.11;100.00
64352;BME280;50680;52.626;-8.668;2023-07-22T04:17:24;100552.63;;;17.14;100.00
64352;BME280;50680;52.626;-8.668;2023-07-22T04:19:51;100555.28;;;17.14;100.00
64352;BME280;50680;52.626;-8.668;2023-07-22T04:22:20;100552.38;;;17.17;100.00
64352;BME280;50680;52.626;-8.668;2023-07-22T04:24:47;100547.19;;;17.16;100.00
64352;BME280;50680;52.626;-8.668;2023-07-22T04:27:18;100546.63;;;17.12;100.00
64352;BME280;50680;52.626;-8.668;2023-07-22T04:29:45;100555.16;;;17.16;100.00
64352;BME280;50680;52.626;-8.668;2023-07-22T04:32:12;100547.19;;;17.16;100.00
64352;BME280;50680;52.626;-8.668;2023-07-22T04:34:39;100546.38;;;17.15;100.00
64352;BME280;50680;52.626;-8.668;2023-07-22T04:37:06;100541.63;;;17.19;100.00
64352;BME280;50680;52.626;-8.668;2023-07-22T04:39:33;100544.13;;;17.20;100.00
64352;BME280;50680;52.626;-8.668;2023-07-22T04:42:01;100543.28;;;17.20;100.00
64352;BME280;50680;52.626;-8.668;2023-07-22T04:44:28;100541.06;;;17.25;100.00
64352;BME280;50680;52.626;-8.668;2023-07-22T04:46:55;100522.94;;;17.20;100.00
64352;BME280;50680;52.626;-8.668;2023-07-22T04:49:22;100536.03;;;17.32;100.00
64352;BME280;50680;52.626;-8.668;2023-07-22T04:51:49;100528.78;;;17.34;100.00
64352;BME280;50680;52.626;-8.668;2023-07-22T04:54:17;100527.13;;;17.33;100.00
64352;BME280;50680;52.626;-8.668;2023-07-22T04:56:45;100531.28;;;17.35;100.00
64352;BME280;50680;52.626;-8.668;2023-07-22T04:59:12;100521.56;;;17.36;100.00
64352;BME280;50680;52.626;-8.668;2023-07-22T05:01:41;100524.06;;;17.37;100.00
64352;BME280;50680;52.626;-8.668;2023-07-22T05:04:08;100525.31;;;17.43;100.00
64352;BME280;50680;52.626;-8.668;2023-07-22T05:06:35;100516.69;;;17.41;100.00
64352;BME280;50680;52.626;-8.668;2023-07-22T05:09:03;100517.09;;;17.46;100.00
64352;BME280;50680;52.626;-8.668;2023-07-22T05:11:30;100517.91;;;17.46;100.00
64352;BME280;50680;52.626;-8.668;2023-07-22T05:13:57;100511.47;;;17.49;100.00
64352;BME280;50680;52.626;-8.668;2023-07-22T05:16:24;100508.84;;;17.49;100.00
64352;BME280;50680;52.626;-8.668;2023-07-22T05:18:52;100510.66;;;17.48;100.00
64352;BME280;50680;52.626;-8.668;2023-07-22T05:21:19;100506.91;;;17.51;100.00
64352;BME280;50680;52.626;-8.668;2023-07-22T23:25:26;100121.41;;;16.43;100.00
64352;BME280;50680;52.626;-8.668;2023-07-22T23:27:54;100130.53;;;16.96;100.00
64352;BME280;50680;52.626;-8.668;2023-07-22T23:30:21;100114.88;;;17.12;100.00
64352;BME280;50680;52.626;-8.668;2023-07-22T23:32:47;100118.19;;;17.14;100.00
64352;BME280;50680;52.626;-8.668;2023-07-22T23:35:14;100111.31;;;17.21;100.00
64352;BME280;50680;52.626;-8.668;2023-07-22T23:37:42;100113.81;;;17.23;100.00
64352;BME280;50680;52.626;-8.668;2023-07-22T23:40:10;100108.81;;;17.20;100.00
64352;BME280;50680;52.626;-8.668;2023-07-22T23:42:37;100103.69;;;17.18;100.00
64352;BME280;50680;52.626;-8.668;2023-07-22T23:45:04;100097.38;;;17.19;100.00
64352;BME280;50680;52.626;-8.668;2023-07-22T23:47:31;100090.72;;;17.15;100.00
64352;BME280;50680;52.626;-8.668;2023-07-22T23:49:59;100089.59;;;17.18;100.00
64352;BME280;50680;52.626;-8.668;2023-07-22T23:52:26;100077.56;;;17.23;100.00
64352;BME280;50680;52.626;-8.668;2023-07-22T23:54:53;100064.69;;;17.28;100.00
64352;BME280;50680;52.626;-8.668;2023-07-22T23:57:20;100054.16;;;17.37;100.00
64352;BME280;50680;52.626;-8.668;2023-07-22T23:59:47;100055.56;;;17.41;100.00
